createdAt,value
2019-02-04T00:00:22.364Z,7.57
2019-02-04T00:06:20.050Z,8.27
2019-02-04T00:12:17.636Z,8.73
2019-02-04T00:17:21.868Z,11.00
2019-02-04T00:23:19.451Z,7.30
2019-02-04T00:29:17.334Z,9.50
2019-02-04T00:35:15.187Z,7.93
2019-02-04T00:41:12.601Z,7.20
2019-02-04T00:47:10.492Z,11.30
2019-02-04T00:53:08.688Z,10.70
2019-02-04T00:59:06.274Z,8.77
2019-02-04T01:05:04.263Z,8.00
2019-02-04T01:10:59.698Z,6.07
2019-02-04T01:16:03.231Z,8.53
2019-02-04T01:22:01.001Z,9.53
2019-02-04T01:27:58.789Z,9.50
2019-02-04T01:33:56.575Z,6.77
2019-02-04T01:39:56.206Z,6.97
2019-02-04T01:45:54.197Z,7.50
2019-02-04T01:51:52.833Z,7.40
2019-02-04T01:57:52.540Z,5.67
2019-02-04T02:03:51.865Z,8.93
2019-02-04T02:09:51.496Z,9.03
2019-02-04T02:14:55.180Z,8.90
2019-02-04T02:20:53.112Z,7.97
2019-02-04T02:26:51.204Z,5.47
2019-02-04T02:32:49.091Z,6.10
2019-02-04T02:38:46.775Z,6.20
2019-02-04T02:44:44.869Z,8.90
2019-02-04T02:50:42.560Z,10.90
2019-02-04T02:56:40.348Z,9.37
2019-02-04T03:02:40.182Z,7.23
2019-02-04T03:08:37.550Z,5.53
2019-02-04T03:13:41.088Z,6.33
2019-02-04T03:19:42.845Z,5.90
2019-02-04T03:25:40.739Z,11.50
2019-02-04T03:31:40.036Z,8.70
2019-02-04T03:37:38.155Z,8.60
2019-02-04T03:43:39.938Z,7.43
2019-02-04T03:49:37.722Z,9.83
2019-02-04T03:55:36.946Z,12.07
2019-02-04T04:01:34.732Z,11.13
2019-02-04T04:07:32.534Z,8.00
2019-02-04T04:12:36.164Z,10.40
2019-02-04T04:17:41.394Z,9.70
2019-02-04T04:23:39.390Z,6.80
2019-02-04T04:29:37.174Z,7.60
2019-02-04T04:35:34.958Z,6.50
2019-02-04T04:41:32.541Z,5.97
2019-02-04T04:47:30.130Z,8.63
2019-02-04T04:53:27.915Z,5.53
2019-02-04T04:59:25.801Z,8.70
2019-02-04T05:05:23.486Z,11.43
2019-02-04T05:11:25.773Z,9.03
2019-02-04T05:16:26.894Z,9.40
2019-02-04T05:22:24.522Z,7.70
2019-02-04T05:28:22.309Z,11.80
2019-02-04T05:34:20.203Z,9.50
2019-02-04T05:40:17.991Z,11.00
2019-02-04T05:46:16.495Z,7.30
2019-02-04T05:52:14.384Z,5.73
2019-02-04T05:58:12.605Z,12.27
2019-02-04T06:04:12.643Z,7.17
2019-02-04T06:10:10.002Z,7.80
2019-02-04T06:15:16.000Z,8.73
2019-02-04T06:21:13.757Z,7.73
2019-02-04T06:27:12.496Z,6.30
2019-02-04T06:33:10.256Z,7.27
2019-02-04T06:39:07.941Z,6.20
2019-02-04T06:45:05.726Z,12.37
2019-02-04T06:51:03.616Z,8.30
2019-02-04T06:57:01.404Z,8.53
2019-02-04T07:02:59.087Z,9.07
2019-02-04T07:08:56.673Z,10.33
2019-02-04T07:14:54.257Z,11.37
2019-02-04T07:19:59.425Z,7.23
2019-02-04T07:25:57.300Z,7.43
2019-02-04T07:31:55.310Z,9.13
2019-02-04T07:37:55.024Z,7.07
2019-02-04T07:43:52.821Z,11.70
2019-02-04T07:49:52.313Z,9.60
2019-02-04T07:55:50.866Z,8.30
2019-02-04T08:01:48.635Z,9.00
2019-02-04T08:07:46.528Z,8.80
2019-02-04T08:13:20.552Z,11.17
2019-02-04T08:18:24.928Z,9.60
2019-02-04T08:24:22.850Z,16.90
2019-02-04T08:30:02.747Z,10.30
2019-02-04T08:36:00.838Z,10.60
2019-02-04T08:41:58.731Z,13.63
2019-02-04T08:47:56.619Z,13.33
2019-02-04T08:53:54.204Z,15.30
2019-02-04T08:59:51.896Z,14.80
2019-02-04T09:05:49.988Z,16.93
2019-02-04T09:11:48.296Z,17.13
2019-02-04T09:16:54.192Z,20.83
2019-02-04T09:22:52.354Z,19.70
2019-02-04T09:28:50.655Z,21.23
2019-02-04T09:34:49.058Z,18.70
2019-02-04T09:40:46.639Z,21.13
2019-02-04T09:46:44.320Z,23.10
2019-02-04T09:52:42.108Z,20.73
2019-02-04T09:58:40.202Z,23.13
2019-02-04T10:04:38.398Z,22.93
2019-02-04T10:10:36.212Z,19.80
2019-02-04T10:16:34.545Z,22.37
2019-02-04T10:21:39.701Z,19.63
2019-02-04T10:27:37.443Z,22.83
2019-02-04T10:33:35.449Z,21.83
2019-02-04T10:39:33.131Z,25.63
2019-02-04T10:45:31.096Z,18.43
2019-02-04T10:51:29.015Z,17.20
2019-02-04T10:57:27.194Z,18.33
2019-02-04T11:03:25.528Z,15.53
2019-02-04T11:09:23.917Z,17.73
2019-02-04T11:14:30.400Z,15.07
2019-02-04T11:19:33.771Z,15.27
2019-02-04T11:25:31.904Z,12.90
2019-02-04T11:31:29.662Z,18.03
2019-02-04T11:37:27.795Z,15.47
2019-02-04T11:43:25.701Z,18.43
2019-02-04T11:49:23.228Z,14.97
2019-02-04T11:55:20.817Z,16.77
2019-02-04T12:01:18.703Z,12.53
2019-02-04T12:07:16.904Z,13.30
2019-02-04T12:13:14.890Z,13.20
2019-02-04T12:18:18.386Z,14.30
2019-02-04T12:24:15.992Z,12.57
2019-02-04T12:30:14.185Z,10.60
2019-02-04T12:36:11.975Z,10.50
2019-02-04T12:42:09.798Z,10.63
2019-02-04T12:48:07.548Z,12.80
2019-02-04T12:54:05.440Z,11.43
2019-02-04T13:00:03.433Z,11.33
2019-02-04T13:06:01.221Z,10.97
2019-02-04T13:11:59.312Z,8.00
2019-02-04T13:17:20.751Z,8.60
2019-02-04T13:23:19.155Z,7.63
2019-02-04T13:29:17.144Z,7.90
2019-02-04T13:35:15.030Z,7.33
2019-02-04T13:41:12.822Z,7.67
2019-02-04T13:47:10.711Z,7.83
2019-02-04T13:53:08.476Z,9.57
2019-02-04T13:59:07.107Z,7.63
2019-02-04T14:05:05.302Z,7.63
2019-02-04T14:11:02.885Z,8.97
2019-02-04T14:16:06.305Z,7.97
2019-02-04T14:22:09.364Z,11.80
2019-02-04T14:28:05.153Z,7.67
2019-02-04T14:34:06.355Z,8.57
2019-02-04T14:40:17.790Z,7.90
2019-02-04T14:46:03.526Z,6.83
2019-02-04T14:52:01.831Z,8.30
2019-02-04T14:58:01.661Z,6.33
2019-02-04T15:04:03.446Z,7.07
2019-02-04T15:10:01.341Z,7.30
2019-02-04T15:15:59.022Z,7.60
2019-02-04T15:21:57.221Z,8.43
2019-02-04T15:27:56.547Z,6.27
2019-02-04T15:33:54.563Z,5.33
2019-02-04T15:39:52.430Z,6.73
2019-02-04T15:45:50.010Z,5.50
2019-02-04T15:51:47.493Z,7.00
2019-02-04T15:57:49.789Z,5.17
2019-02-04T16:03:47.677Z,8.83
2019-02-04T16:09:10.346Z,6.53
2019-02-04T16:14:20.655Z,7.93
2019-02-04T16:20:18.803Z,5.60
2019-02-04T16:26:16.490Z,5.87
2019-02-04T16:32:14.381Z,6.03
2019-02-04T16:38:12.592Z,7.57
2019-02-04T16:44:10.265Z,7.17
2019-02-04T16:50:08.150Z,9.80
2019-02-04T16:56:05.941Z,7.50
2019-02-04T17:02:03.729Z,8.67
2019-02-04T17:08:01.830Z,8.30
2019-02-04T17:13:05.300Z,7.73
2019-02-04T17:19:03.023Z,11.53
2019-02-04T17:25:00.605Z,7.53
2019-02-04T17:30:58.391Z,8.40
2019-02-04T17:36:56.284Z,9.13
2019-02-04T17:42:54.172Z,8.23
2019-02-04T17:48:51.962Z,7.40
2019-02-04T17:54:49.851Z,10.13
2019-02-04T18:00:47.843Z,8.63
2019-02-04T18:06:45.938Z,10.10
2019-02-04T18:11:49.234Z,7.27
2019-02-04T18:17:47.243Z,6.93
2019-02-04T18:23:46.328Z,7.20
2019-02-04T18:29:44.349Z,6.17
2019-02-04T18:35:42.751Z,7.33
2019-02-04T18:41:40.547Z,8.37
2019-02-04T18:47:38.124Z,6.57
2019-02-04T18:53:17.787Z,7.03
2019-02-04T18:59:15.573Z,9.10
2019-02-04T19:05:13.566Z,11.97
2019-02-04T19:11:11.662Z,8.47
2019-02-04T19:16:17.931Z,5.93
2019-02-04T19:22:15.831Z,8.53
2019-02-04T19:28:13.315Z,7.73
2019-02-04T19:34:11.001Z,7.50
2019-02-04T19:40:08.789Z,6.00
2019-02-04T19:46:06.855Z,5.80
2019-02-04T19:52:04.905Z,5.83
2019-02-04T19:58:03.487Z,7.00
2019-02-04T20:04:01.936Z,7.00
2019-02-04T20:09:59.979Z,6.83
2019-02-04T20:15:06.245Z,6.50
2019-02-04T20:21:04.172Z,7.50
2019-02-04T20:27:02.141Z,6.13
2019-02-04T20:33:00.034Z,6.43
2019-02-04T20:38:57.916Z,6.90
2019-02-04T20:44:55.808Z,5.60
2019-02-04T20:50:53.599Z,8.73
2019-02-04T20:56:51.903Z,6.03
2019-02-04T21:02:49.794Z,6.93
2019-02-04T21:08:47.993Z,6.20
2019-02-04T21:13:51.504Z,5.70
2019-02-04T21:19:49.701Z,6.17
2019-02-04T21:25:47.684Z,5.23
2019-02-04T21:31:45.883Z,5.60
2019-02-04T21:37:43.669Z,6.57
2019-02-04T21:43:41.393Z,5.93
2019-02-04T21:49:39.241Z,10.23
2019-02-04T21:54:51.393Z,6.97
2019-02-04T22:00:48.945Z,6.63
2019-02-04T22:06:46.726Z,6.00
2019-02-04T22:11:50.349Z,6.13
2019-02-04T22:17:48.053Z,6.23
2019-02-04T22:23:45.817Z,6.90
2019-02-04T22:29:46.168Z,7.07
2019-02-04T22:35:43.748Z,7.00
2019-02-04T22:41:41.331Z,7.13
2019-02-04T22:47:39.840Z,7.00
2019-02-04T22:53:39.266Z,6.90
2019-02-04T22:59:37.257Z,8.50
2019-02-04T23:05:35.553Z,7.30
2019-02-04T23:10:57.197Z,7.20
2019-02-04T23:16:55.188Z,10.97
2019-02-04T23:22:54.620Z,7.80
2019-02-04T23:59:11.646Z,11.00
